Mochovce, Slovakia

4:48 PM CEST on August 21, 2014 (GMT +0200)
ISLOVAKI12 | Change Station
CLOSE
Current Station
Personal Weather Station
Location: Stary Tekov, Nitranský kraj
Elevation: 545 ft
Nearby Weather Stations

Elev 545 ft 48.24 °N, 18.53 °E | Updated 3 minutes ago

Partly Cloudy
Partly Cloudy
70.3 °F
Feels Like 77 °F
N
3.0
Wind Variable Wind from WNW
Gusts 10.0 mph

Today
High -- | Low -- °F
--% Chance of Precip.
Yesterday
High -- | Low -- °F
Precip. -- in
5:48 AM 7:49 PM
Waning Crescent, 14% visible
Pressure 30.01 in
Visibility 6.2 miles
Clouds Few 4600 ft
Heat Index 77 °F
Dew Point 53 °F
Humidity 55%
Rainfall 0.17 in
Snow Depth Not available.
UV 3 out of 12
Pollen Not available.
Air Quality Not available.
Flu Activity Not available.
METAR LZIB 211430Z 30008KT 9999 FEW046 20/10 Q1016 NOSIG

More Conditions Fewer Conditions

Pressure 30.01 in
Visibility 6.2 miles
Clouds Few 4600 ft
Heat Index 77 °F
Dew Point 53 °F
Humidity 55%
Rainfall 0.17 in
Snow Depth Not available.
UV 3 out of 12
Pollen Not available.
Air Quality Not available.
Flu Activity Not available.
METAR LZIB 211430Z 30008KT 9999 FEW046 20/10 Q1016 NOSIG

More Conditions Fewer Conditions

10-Day Weather Forecast

Almanac

Astronomy

Aug. 21, 2014 Rise Set
Actual Time 5:48 AM CEST 7:49 PM CEST
Civil Twilight 5:14 AM CEST 8:23 PM CEST
Nautical Twilight 4:32 AM CEST 9:04 PM CEST
Astronomical Twilight 3:46 AM CEST 9:50 PM CEST
Moon 1:54 AM CEST 5:12 PM CEST
Length of Visible Light 15h 08m
Length of Day
14h 01m
Tomorrow will be 3m 16s shorter.
Waning Crescent, 14% of the Moon is Illuminated
Today
Waning Crescent
Aug 25
New
Sep 2
First Quarter
Sep 8
Full
Sep 15
Last Quarter

Today's Extremes

Country Highs Country Lows

Community

WunderPhotos

Upload Photos

1,745,930 photos uploaded!

Nearby

Snow Depth

Not available.

Earthquake Activity

City Distance Mag. Time & Date
No recent earthquake activity has been reported nearby.
Minimum magnitude displayed is 2.5.

Coastal Water Temperatures

Place Temperature
No Stations Reporting

Nearby Weather Stations